createdAt,value
2022-08-09T00:00:04.400Z,95.16
2022-08-09T00:02:34.041Z,93.21
2022-08-09T00:06:16.585Z,95.06
2022-08-09T00:07:48.312Z,97.21
2022-08-09T00:10:21.007Z,96.38
2022-08-09T00:12:52.272Z,96.38
2022-08-09T00:15:26.317Z,97.52
2022-08-09T00:18:10.731Z,95.68
2022-08-09T00:20:41.369Z,97.10
2022-08-09T00:23:55.577Z,97.00
2022-08-09T00:25:55.312Z,97.77
2022-08-09T00:28:23.376Z,98.12
2022-08-09T00:30:54.058Z,98.34
2022-08-09T00:33:20.475Z,98.27
2022-08-09T00:36:00.874Z,99.15
2022-08-09T00:38:27.983Z,100.00
2022-08-09T00:40:55.238Z,100.00
2022-08-09T00:44:17.149Z,98.27
2022-08-09T00:46:11.201Z,100.00
2022-08-09T00:48:56.218Z,100.00
2022-08-09T00:51:23.070Z,99.85
2022-08-09T00:53:53.201Z,100.00
2022-08-09T00:56:19.664Z,100.00
2022-08-09T00:58:48.971Z,100.00
2022-08-09T01:01:20.726Z,100.00
2022-08-09T01:03:56.804Z,100.00
2022-08-09T01:06:54.419Z,100.00
2022-08-09T01:09:21.293Z,100.00
2022-08-09T01:12:00.872Z,100.00
2022-08-09T01:14:41.446Z,100.00
2022-08-09T01:17:17.989Z,100.00
2022-08-09T01:19:57.051Z,100.00
2022-08-09T01:22:52.092Z,100.00
2022-08-09T01:26:00.371Z,100.00
2022-08-09T01:28:27.682Z,100.00
2022-08-09T01:30:58.962Z,100.00
2022-08-09T01:33:28.057Z,100.00
2022-08-09T01:36:08.829Z,100.00
2022-08-09T01:38:38.631Z,100.00
2022-08-09T01:41:15.025Z,100.00
2022-08-09T01:43:52.521Z,100.00
2022-08-09T01:46:25.028Z,100.00
2022-08-09T01:48:59.678Z,100.00
2022-08-09T01:51:27.939Z,100.00
2022-08-09T01:54:01.246Z,100.00
2022-08-09T01:56:30.538Z,100.00
2022-08-09T01:59:01.556Z,100.00
2022-08-09T02:01:57.680Z,100.00
2022-08-09T02:04:18.191Z,100.00
2022-08-09T02:07:04.316Z,100.00
2022-08-09T02:09:41.874Z,100.00
2022-08-09T02:12:13.364Z,100.00
2022-08-09T02:14:51.741Z,100.00
2022-08-09T02:18:01.630Z,100.00
2022-08-09T02:20:10.342Z,100.00
2022-08-09T02:22:46.442Z,100.00
2022-08-09T02:25:19.404Z,100.00
2022-08-09T02:28:00.510Z,100.00
2022-08-09T02:30:37.590Z,100.00
2022-08-09T02:33:08.023Z,100.00
2022-08-09T02:36:01.290Z,100.00
2022-08-09T02:38:34.868Z,100.00
2022-08-09T02:41:13.182Z,100.00
2022-08-09T02:43:54.493Z,100.00
2022-08-09T02:46:27.286Z,100.00
2022-08-09T02:48:56.736Z,100.00
2022-08-09T02:51:26.569Z,100.00
2022-08-09T02:54:00.429Z,100.00
2022-08-09T02:56:28.106Z,100.00
2022-08-09T02:58:56.093Z,100.00
2022-08-09T03:01:29.708Z,100.00
2022-08-09T03:04:19.306Z,100.00
2022-08-09T03:06:48.765Z,100.00
2022-08-09T03:09:17.606Z,100.00
2022-08-09T03:12:05.372Z,100.00
2022-08-09T03:14:32.840Z,100.00
2022-08-09T03:17:01.527Z,100.00
2022-08-09T03:19:52.487Z,100.00
2022-08-09T03:22:25.121Z,100.00
2022-08-09T03:25:05.842Z,100.00
2022-08-09T03:27:45.336Z,100.00
2022-08-09T03:30:13.533Z,100.00
2022-08-09T03:32:41.574Z,100.00
2022-08-09T03:35:14.837Z,100.00
2022-08-09T03:37:56.127Z,100.00
2022-08-09T03:40:24.952Z,100.00
2022-08-09T03:42:51.565Z,100.00
2022-08-09T03:46:04.228Z,100.00
2022-08-09T03:48:04.777Z,100.00
2022-08-09T03:50:34.889Z,100.00
2022-08-09T03:53:06.123Z,100.00
2022-08-09T03:55:40.817Z,100.00
2022-08-09T03:58:14.917Z,100.00
2022-08-09T04:00:44.247Z,100.00
2022-08-09T04:03:24.856Z,100.00
2022-08-09T04:05:58.660Z,100.00
2022-08-09T04:08:28.910Z,100.00
2022-08-09T04:10:56.070Z,100.00
2022-08-09T04:14:37.008Z,100.00
2022-08-09T04:16:19.509Z,100.00
2022-08-09T04:18:47.706Z,100.00
2022-08-09T04:21:15.821Z,100.00
2022-08-09T04:23:53.967Z,100.00
2022-08-09T04:26:24.173Z,100.00
2022-08-09T04:28:50.640Z,100.00
2022-08-09T04:31:17.095Z,100.00
2022-08-09T04:33:51.539Z,100.00
2022-08-09T04:36:19.921Z,100.00
2022-08-09T04:38:46.446Z,100.00
2022-08-09T04:41:15.090Z,100.00
2022-08-09T04:43:46.669Z,100.00
2022-08-09T04:46:36.564Z,100.00
2022-08-09T04:49:15.384Z,100.00
2022-08-09T04:51:42.203Z,100.00
2022-08-09T04:54:08.899Z,100.00
2022-08-09T04:56:37.047Z,100.00
2022-08-09T04:59:12.978Z,100.00
2022-08-09T05:01:42.585Z,100.00
2022-08-09T05:04:09.221Z,100.00
2022-08-09T05:06:36.905Z,100.00
2022-08-09T05:09:03.679Z,100.00
2022-08-09T05:11:32.399Z,100.00
2022-08-09T05:14:05.831Z,100.00
2022-08-09T05:16:58.225Z,100.00
2022-08-09T05:19:26.226Z,100.00
2022-08-09T05:21:58.334Z,100.00
2022-08-09T05:24:25.148Z,100.00
2022-08-09T05:26:52.978Z,100.00
2022-08-09T05:29:22.092Z,100.00
2022-08-09T05:31:57.737Z,100.00
2022-08-09T05:34:32.848Z,100.00
2022-08-09T05:37:06.385Z,100.00
2022-08-09T05:39:42.382Z,100.00
2022-08-09T05:42:17.566Z,100.00
2022-08-09T05:44:52.921Z,100.00
2022-08-09T05:47:24.157Z,100.00
2022-08-09T05:50:25.632Z,100.00
2022-08-09T05:52:43.841Z,100.00
2022-08-09T05:55:18.153Z,100.00
2022-08-09T05:57:55.759Z,100.00
2022-08-09T06:00:28.642Z,100.00
2022-08-09T06:03:00.093Z,100.00
2022-08-09T06:05:57.631Z,100.00
2022-08-09T06:08:19.283Z,100.00
2022-08-09T06:10:52.123Z,100.00
2022-08-09T06:13:20.517Z,100.00
2022-08-09T06:15:52.387Z,100.00
2022-08-09T06:18:24.042Z,100.00
2022-08-09T06:20:57.707Z,100.00
2022-08-09T06:23:58.662Z,100.00
2022-08-09T06:26:20.128Z,100.00
2022-08-09T06:29:00.481Z,100.00
2022-08-09T06:31:31.290Z,100.00
2022-08-09T06:33:58.752Z,100.00
2022-08-09T06:36:29.757Z,100.00
2022-08-09T06:38:57.577Z,100.00
2022-08-09T06:41:39.573Z,100.00
2022-08-09T06:44:14.259Z,100.00
2022-08-09T06:46:45.482Z,100.00
2022-08-09T06:49:11.896Z,100.00
2022-08-09T06:51:39.983Z,100.00
2022-08-09T06:54:06.630Z,100.00
2022-08-09T06:56:38.914Z,100.00
2022-08-09T07:00:55.468Z,100.00
2022-08-09T07:02:03.894Z,100.00
2022-08-09T07:04:31.743Z,100.00
2022-08-09T07:07:00.638Z,100.00
2022-08-09T07:09:54.991Z,100.00
2022-08-09T07:12:18.126Z,96.77
2022-08-09T07:14:45.935Z,96.97
2022-08-09T07:17:18.601Z,100.00
2022-08-09T07:19:45.004Z,97.52
2022-08-09T07:22:14.790Z,96.18
2022-08-09T07:24:49.242Z,95.09
2022-08-09T07:27:27.273Z,94.83
2022-08-09T07:30:01.534Z,92.56
2022-08-09T07:32:32.189Z,91.15
2022-08-09T07:35:00.896Z,90.82
2022-08-09T07:37:29.374Z,89.42
2022-08-09T07:39:56.056Z,89.90
2022-08-09T07:42:26.092Z,88.41
2022-08-09T07:45:02.581Z,86.46
2022-08-09T07:47:33.377Z,84.43
2022-08-09T07:50:16.202Z,87.12
2022-08-09T07:52:43.643Z,85.54
2022-08-09T07:55:13.892Z,80.54
2022-08-09T07:57:46.545Z,79.53
2022-08-09T08:00:20.499Z,72.37
2022-08-09T08:03:04.865Z,75.93
2022-08-09T08:05:54.136Z,76.29
2022-08-09T08:09:01.314Z,76.14
2022-08-09T08:12:09.357Z,73.19
2022-08-09T08:13:56.313Z,73.89
2022-08-09T08:16:30.017Z,72.51
2022-08-09T08:18:58.749Z,72.58
2022-08-09T08:21:25.195Z,62.04
2022-08-09T08:23:55.873Z,66.10
2022-08-09T08:26:41.716Z,58.02
2022-08-09T08:29:09.382Z,55.31
2022-08-09T08:32:02.400Z,50.85
2022-08-09T08:34:25.584Z,48.71
2022-08-09T08:36:52.523Z,46.47
2022-08-09T08:39:19.065Z,46.52
2022-08-09T08:41:51.440Z,47.62
2022-08-09T08:44:27.269Z,49.87
2022-08-09T08:46:59.498Z,47.67
2022-08-09T08:49:38.443Z,47.35
2022-08-09T08:52:48.584Z,46.05
2022-08-09T08:55:03.968Z,49.38
2022-08-09T08:57:34.831Z,52.74
2022-08-09T09:00:02.368Z,56.41
2022-08-09T09:02:35.398Z,56.32
2022-08-09T09:05:05.854Z,55.69
2022-08-09T09:07:37.397Z,54.57
2022-08-09T09:10:10.919Z,56.42
2022-08-09T09:12:38.220Z,55.55
2022-08-09T09:15:06.468Z,54.82
2022-08-09T09:17:49.446Z,49.32
2022-08-09T09:20:20.696Z,50.50
2022-08-09T09:23:01.874Z,51.60
2022-08-09T09:26:05.097Z,51.97
2022-08-09T09:29:02.843Z,53.55
2022-08-09T09:31:17.522Z,55.02
2022-08-09T09:34:14.639Z,51.49
2022-08-09T09:36:46.707Z,53.70
2022-08-09T09:39:22.922Z,53.34
2022-08-09T09:41:51.309Z,52.81
2022-08-09T09:44:31.507Z,51.88
2022-08-09T09:47:11.648Z,51.79
2022-08-09T09:50:06.993Z,50.26
2022-08-09T09:52:36.927Z,50.91
2022-08-09T09:55:28.778Z,51.06
2022-08-09T09:58:19.287Z,51.61
2022-08-09T10:00:54.247Z,51.03
2022-08-09T10:03:57.043Z,53.02
2022-08-09T10:06:42.620Z,52.69
2022-08-09T10:09:23.276Z,50.14
2022-08-09T10:12:11.704Z,49.97
2022-08-09T10:14:47.705Z,48.35
2022-08-09T10:17:40.102Z,50.74
2022-08-09T10:20:04.247Z,51.92
2022-08-09T10:22:33.604Z,50.60
2022-08-09T10:25:03.363Z,50.11
2022-08-09T10:27:38.447Z,49.97
2022-08-09T10:30:44.000Z,48.75
2022-08-09T10:32:56.104Z,50.31
2022-08-09T10:35:23.553Z,47.47
2022-08-09T10:37:53.393Z,49.56
2022-08-09T10:40:35.064Z,46.65
2022-08-09T10:43:05.344Z,46.87
2022-08-09T10:45:35.626Z,49.83
2022-08-09T10:48:30.189Z,48.05
2022-08-09T10:51:17.657Z,46.72
2022-08-09T10:53:59.755Z,47.99
2022-08-09T10:56:33.799Z,49.61
2022-08-09T10:59:23.299Z,48.81
2022-08-09T11:03:11.675Z,46.78
2022-08-09T11:04:37.668Z,47.07
2022-08-09T11:07:27.154Z,47.01
2022-08-09T11:10:13.712Z,47.78
2022-08-09T11:12:45.028Z,47.89
2022-08-09T11:15:19.252Z,49.11
2022-08-09T11:17:47.982Z,48.99
2022-08-09T11:20:38.688Z,46.80
2022-08-09T11:23:09.982Z,48.31
2022-08-09T11:25:46.042Z,46.44
2022-08-09T11:28:38.692Z,47.34
2022-08-09T11:31:49.213Z,45.62
2022-08-09T11:34:20.956Z,45.00
2022-08-09T11:36:48.220Z,44.80
2022-08-09T11:39:15.386Z,46.50
2022-08-09T11:41:43.224Z,45.62
2022-08-09T11:44:11.901Z,47.08
2022-08-09T11:46:57.855Z,44.91
2022-08-09T11:50:53.735Z,44.84
2022-08-09T11:53:15.750Z,49.28
2022-08-09T11:55:52.163Z,51.43
2022-08-09T11:58:30.453Z,51.62
2022-08-09T12:01:08.551Z,50.21
2022-08-09T12:03:55.679Z,48.21
2022-08-09T12:06:26.846Z,49.41
2022-08-09T12:09:01.100Z,49.05
2022-08-09T12:11:29.089Z,49.56
2022-08-09T12:14:07.102Z,51.42
2022-08-09T12:16:40.639Z,49.81
2022-08-09T12:19:12.192Z,48.68
2022-08-09T12:21:48.802Z,49.96
2022-08-09T12:24:23.823Z,47.03
2022-08-09T12:28:58.818Z,47.92
2022-08-09T12:29:52.311Z,47.01
2022-08-09T12:32:27.606Z,46.72
2022-08-09T12:35:03.170Z,46.41
2022-08-09T12:37:50.196Z,46.61
2022-08-09T12:40:18.865Z,46.52
2022-08-09T12:42:46.467Z,43.90
2022-08-09T12:45:33.764Z,43.21
2022-08-09T12:48:10.789Z,45.32
2022-08-09T12:50:48.889Z,46.72
2022-08-09T12:53:36.677Z,45.28
2022-08-09T12:56:39.313Z,44.42
2022-08-09T12:59:13.817Z,46.45
2022-08-09T13:01:49.681Z,44.75
2022-08-09T13:04:37.017Z,44.85
2022-08-09T13:07:19.534Z,40.63
2022-08-09T13:09:55.051Z,41.30
2022-08-09T13:12:28.047Z,40.51
2022-08-09T13:15:07.161Z,41.14
2022-08-09T13:18:03.108Z,40.85
2022-08-09T13:20:37.363Z,40.76
2022-08-09T13:24:16.422Z,40.50
2022-08-09T13:26:04.051Z,39.47
2022-08-09T13:28:34.486Z,40.70
2022-08-09T13:32:13.347Z,39.17
2022-08-09T13:33:56.700Z,40.45
2022-08-09T13:36:41.279Z,40.23
2022-08-09T13:41:55.413Z,37.20
2022-08-09T13:42:05.579Z,37.61
2022-08-09T13:44:42.068Z,39.34
2022-08-09T13:47:27.186Z,37.92
2022-08-09T13:50:01.241Z,35.20
2022-08-09T13:52:33.371Z,37.09
2022-08-09T13:55:04.636Z,35.86
2022-08-09T13:57:47.345Z,38.18
2022-08-09T14:00:23.004Z,36.26
2022-08-09T14:03:57.857Z,35.56
2022-08-09T14:06:00.570Z,35.18
2022-08-09T14:08:30.651Z,36.44
2022-08-09T14:10:59.645Z,34.61
2022-08-09T14:14:24.515Z,35.46
2022-08-09T14:16:19.831Z,37.00
2022-08-09T14:18:58.119Z,35.86
2022-08-09T14:21:26.986Z,35.18
2022-08-09T14:23:57.283Z,37.08
2022-08-09T14:26:32.865Z,35.10
2022-08-09T14:29:03.022Z,36.59
2022-08-09T14:31:49.622Z,36.73
2022-08-09T14:34:17.511Z,35.07
2022-08-09T14:36:54.103Z,36.17
2022-08-09T14:39:20.526Z,34.31
2022-08-09T14:42:06.963Z,34.78
2022-08-09T14:44:48.187Z,36.42
2022-08-09T14:47:41.201Z,35.98
2022-08-09T14:50:02.741Z,33.68
2022-08-09T14:52:29.375Z,34.17
2022-08-09T14:54:55.879Z,35.10
2022-08-09T14:57:22.637Z,32.95
2022-08-09T14:59:58.578Z,33.46
2022-08-09T15:02:25.035Z,33.56
2022-08-09T15:04:51.547Z,35.31
2022-08-09T15:07:17.973Z,34.83
2022-08-09T15:10:03.571Z,35.60
2022-08-09T15:12:32.428Z,36.21
2022-08-09T15:14:59.105Z,35.78
2022-08-09T15:17:25.720Z,34.44
2022-08-09T15:19:59.109Z,34.37
2022-08-09T15:22:26.514Z,35.51
2022-08-09T15:24:53.816Z,33.73
2022-08-09T15:27:21.138Z,34.16
2022-08-09T15:30:55.390Z,34.71
2022-08-09T15:32:35.000Z,34.14
2022-08-09T15:35:01.808Z,35.48
2022-08-09T15:37:37.476Z,35.26
2022-08-09T15:40:25.254Z,34.91
2022-08-09T15:42:58.376Z,36.09
2022-08-09T15:45:29.257Z,35.35
2022-08-09T15:48:05.634Z,34.64
2022-08-09T15:50:39.222Z,34.67
2022-08-09T15:53:18.922Z,34.58
2022-08-09T15:56:21.045Z,33.45
2022-08-09T15:58:44.872Z,33.75
2022-08-09T16:01:13.309Z,32.93
2022-08-09T16:03:41.489Z,33.42
2022-08-09T16:06:27.255Z,34.68
2022-08-09T16:08:55.972Z,33.37
2022-08-09T16:11:22.622Z,33.99
2022-08-09T16:14:05.301Z,34.12
2022-08-09T16:16:37.118Z,34.66
2022-08-09T16:19:06.125Z,34.75
2022-08-09T16:21:34.982Z,33.81
2022-08-09T16:24:03.064Z,34.70
2022-08-09T16:26:33.544Z,35.31
2022-08-09T16:29:13.224Z,35.26
2022-08-09T16:32:19.940Z,35.79
2022-08-09T16:34:29.553Z,36.09
2022-08-09T16:37:16.132Z,36.09
2022-08-09T16:39:48.143Z,35.73
2022-08-09T16:42:29.164Z,33.53
2022-08-09T16:44:56.030Z,33.96
2022-08-09T16:48:40.919Z,35.12
2022-08-09T16:50:31.851Z,35.65
2022-08-09T16:52:56.140Z,34.85
2022-08-09T16:55:23.358Z,36.19
2022-08-09T16:58:10.096Z,36.64
2022-08-09T17:00:36.743Z,35.96
2022-08-09T17:03:05.145Z,34.86
2022-08-09T17:06:07.518Z,36.23
2022-08-09T17:08:42.775Z,35.51
2022-08-09T17:11:07.156Z,33.89
2022-08-09T17:13:34.404Z,34.99
2022-08-09T17:16:02.429Z,34.17
2022-08-09T17:18:29.888Z,34.34
2022-08-09T17:20:57.041Z,34.76
2022-08-09T17:23:23.826Z,35.80
2022-08-09T17:26:10.396Z,36.55
2022-08-09T17:28:39.048Z,36.31
2022-08-09T17:31:05.665Z,36.64
2022-08-09T17:33:35.866Z,34.96
2022-08-09T17:36:04.851Z,34.80
2022-08-09T17:38:37.113Z,35.24
2022-08-09T17:41:06.350Z,33.50
2022-08-09T17:43:37.381Z,35.26
2022-08-09T17:46:07.628Z,35.21
2022-08-09T17:48:38.778Z,34.88
2022-08-09T17:51:18.113Z,37.01
2022-08-09T17:53:52.228Z,35.29
2022-08-09T17:56:26.625Z,35.66
2022-08-09T17:58:54.562Z,35.61
2022-08-09T18:01:24.248Z,37.20
2022-08-09T18:03:54.777Z,37.55
2022-08-09T18:06:31.727Z,39.83
2022-08-09T18:09:03.119Z,43.19
2022-08-09T18:11:32.132Z,52.00
2022-08-09T18:14:21.885Z,57.82
2022-08-09T18:16:49.794Z,61.15
2022-08-09T18:20:56.680Z,63.57
2022-08-09T18:22:03.930Z,65.66
2022-08-09T18:24:31.116Z,66.75
2022-08-09T18:26:57.890Z,68.05
2022-08-09T18:30:38.840Z,66.96
2022-08-09T18:32:14.353Z,62.07
2022-08-09T18:34:45.701Z,66.16
2022-08-09T18:37:48.069Z,65.34
2022-08-09T18:40:01.719Z,68.29
2022-08-09T18:42:29.430Z,69.79
2022-08-09T18:44:57.087Z,70.82
2022-08-09T18:47:27.711Z,68.61
2022-08-09T18:50:03.300Z,63.85
2022-08-09T18:52:35.544Z,69.17
2022-08-09T18:55:03.708Z,70.11
2022-08-09T18:57:38.538Z,65.42
2022-08-09T19:00:11.491Z,68.58
2022-08-09T19:02:44.050Z,74.91
2022-08-09T19:05:19.994Z,77.52
2022-08-09T19:08:04.613Z,77.11
2022-08-09T19:10:39.370Z,80.68
2022-08-09T19:13:20.149Z,81.42
2022-08-09T19:15:51.017Z,78.46
2022-08-09T19:18:37.408Z,82.88
2022-08-09T19:21:08.918Z,84.77
2022-08-09T19:24:31.981Z,85.46
2022-08-09T19:26:29.591Z,80.52
2022-08-09T19:29:01.688Z,87.72
2022-08-09T19:31:30.546Z,88.04
2022-08-09T19:34:21.302Z,88.85
2022-08-09T19:36:57.448Z,87.68
2022-08-09T19:39:43.028Z,87.02
2022-08-09T19:42:14.728Z,91.47
2022-08-09T19:44:49.559Z,86.54
2022-08-09T19:47:23.258Z,90.18
2022-08-09T19:50:07.564Z,92.05
2022-08-09T19:52:49.804Z,92.21
2022-08-09T19:55:30.642Z,96.09
2022-08-09T19:58:16.081Z,91.71
2022-08-09T20:00:46.189Z,99.51
2022-08-09T20:04:17.987Z,90.79
2022-08-09T20:06:03.346Z,95.93
2022-08-09T20:08:34.876Z,99.81
2022-08-09T20:11:09.578Z,95.81
2022-08-09T20:13:37.924Z,79.14
2022-08-09T20:16:37.128Z,91.73
2022-08-09T20:19:42.438Z,97.83
2022-08-09T20:21:40.636Z,100.00
2022-08-09T20:24:29.822Z,100.00
2022-08-09T20:27:01.430Z,100.00
2022-08-09T20:29:32.612Z,100.00
2022-08-09T20:32:28.793Z,94.32
2022-08-09T20:34:51.544Z,92.41
2022-08-09T20:37:21.467Z,88.41
2022-08-09T20:40:16.120Z,100.00
2022-08-09T20:42:35.870Z,95.67
2022-08-09T20:46:00.802Z,96.43
2022-08-09T20:47:51.669Z,99.13
2022-08-09T20:50:47.859Z,97.83
2022-08-09T20:53:04.594Z,99.70
2022-08-09T20:55:47.173Z,100.00
2022-08-09T20:58:28.520Z,100.00
2022-08-09T21:01:02.460Z,98.25
2022-08-09T21:05:49.643Z,93.58
2022-08-09T21:06:35.016Z,96.25
2022-08-09T21:09:02.448Z,97.92
2022-08-09T21:14:16.719Z,96.82
2022-08-09T21:16:44.149Z,94.36
2022-08-09T21:20:18.050Z,86.83
2022-08-09T21:21:59.037Z,100.00
2022-08-09T21:24:28.456Z,99.90
2022-08-09T21:26:55.720Z,97.00
2022-08-09T21:29:22.864Z,94.98
2022-08-09T21:31:49.841Z,84.64
2022-08-09T21:34:28.808Z,86.70
2022-08-09T21:36:56.448Z,98.69
2022-08-09T21:39:27.723Z,100.00
2022-08-09T21:42:03.937Z,100.00
2022-08-09T21:44:35.318Z,100.00
2022-08-09T21:47:05.903Z,100.00
2022-08-09T21:49:39.858Z,100.00
2022-08-09T21:52:17.179Z,100.00
2022-08-09T21:54:59.452Z,100.00
2022-08-09T21:57:38.438Z,98.03
2022-08-09T22:00:26.033Z,100.00
2022-08-09T22:02:58.876Z,100.00
2022-08-09T22:05:36.819Z,100.00
2022-08-09T22:08:11.893Z,100.00
2022-08-09T22:11:00.877Z,100.00
2022-08-09T22:13:34.108Z,100.00
2022-08-09T22:16:03.693Z,100.00
2022-08-09T22:18:32.771Z,100.00
2022-08-09T22:21:00.200Z,100.00
2022-08-09T22:23:27.065Z,100.00
2022-08-09T22:26:05.977Z,100.00
2022-08-09T22:28:47.254Z,100.00
2022-08-09T22:31:20.659Z,100.00
2022-08-09T22:33:48.872Z,100.00
2022-08-09T22:36:21.602Z,100.00
2022-08-09T22:38:48.795Z,100.00
2022-08-09T22:41:15.261Z,100.00
2022-08-09T22:44:01.755Z,100.00
2022-08-09T22:48:17.750Z,100.00
2022-08-09T22:49:16.071Z,100.00
2022-08-09T22:51:49.210Z,100.00
2022-08-09T22:54:17.217Z,100.00
2022-08-09T22:56:48.095Z,100.00
2022-08-09T22:59:56.207Z,100.00
2022-08-09T23:02:07.658Z,100.00
2022-08-09T23:04:34.593Z,99.36
2022-08-09T23:08:23.173Z,98.06
2022-08-09T23:10:10.464Z,99.02
2022-08-09T23:12:37.074Z,93.10
2022-08-09T23:15:04.833Z,91.09
2022-08-09T23:17:31.311Z,100.00
2022-08-09T23:20:00.736Z,100.00
2022-08-09T23:22:34.295Z,98.66
2022-08-09T23:25:04.477Z,100.00
2022-08-09T23:27:31.188Z,100.00
2022-08-09T23:29:57.600Z,100.00
2022-08-09T23:32:24.066Z,100.00
2022-08-09T23:34:50.487Z,94.90
2022-08-09T23:37:17.115Z,93.06
2022-08-09T23:39:48.282Z,90.68
2022-08-09T23:42:14.914Z,88.91
2022-08-09T23:44:41.708Z,89.39
2022-08-09T23:47:08.148Z,90.44
2022-08-09T23:49:34.579Z,91.41
2022-08-09T23:52:01.051Z,91.82
2022-08-09T23:54:27.604Z,90.07
2022-08-09T23:56:56.107Z,94.17
2022-08-09T23:59:23.712Z,94.91
